createdAt,value
2018-09-01T00:00:55.772Z,0.00
2018-09-01T00:01:55.757Z,0.00
2018-09-01T00:02:55.738Z,0.00
2018-09-01T00:03:55.720Z,0.00
2018-09-01T00:04:55.703Z,0.00
2018-09-01T00:05:55.686Z,0.00
2018-09-01T00:06:55.668Z,0.00
2018-09-01T00:07:55.651Z,0.00
2018-09-01T00:08:55.642Z,0.00
2018-09-01T00:09:55.619Z,0.00
2018-09-01T00:10:55.598Z,0.00
2018-09-01T00:11:55.585Z,0.00
2018-09-01T00:12:55.561Z,0.00
2018-09-01T00:13:55.551Z,0.00
2018-09-01T00:14:55.530Z,0.00
2018-09-01T00:15:55.514Z,0.00
2018-09-01T00:16:55.494Z,0.00
2018-09-01T00:17:55.482Z,0.00
2018-09-01T00:18:55.460Z,0.00
2018-09-01T00:19:55.443Z,0.00
2018-09-01T00:20:55.438Z,0.00
2018-09-01T00:21:55.408Z,0.00
2018-09-01T00:22:55.389Z,0.00
2018-09-01T00:23:55.375Z,0.00
2018-09-01T00:24:55.359Z,0.00
2018-09-01T00:25:55.340Z,0.00
2018-09-01T00:26:55.320Z,0.00
2018-09-01T00:27:55.305Z,0.00
2018-09-01T00:28:55.288Z,0.00
2018-09-01T00:29:55.271Z,0.00
2018-09-01T00:30:55.250Z,0.00
2018-09-01T00:31:55.234Z,0.00
2018-09-01T00:32:55.217Z,0.00
2018-09-01T00:33:55.201Z,0.00
2018-09-01T00:34:55.184Z,0.00
2018-09-01T00:35:55.166Z,0.00
2018-09-01T00:36:55.151Z,0.00
2018-09-01T00:37:55.133Z,0.00
2018-09-01T00:38:55.111Z,0.00
2018-09-01T00:39:55.098Z,0.00
2018-09-01T00:40:55.082Z,0.00
2018-09-01T00:41:55.060Z,0.00
2018-09-01T00:42:55.043Z,0.00
2018-09-01T00:43:55.024Z,0.00
2018-09-01T00:44:55.017Z,0.00
2018-09-01T00:45:54.989Z,0.00
2018-09-01T00:46:54.973Z,0.00
2018-09-01T00:47:54.957Z,0.00
2018-09-01T00:48:54.941Z,0.00
2018-09-01T00:49:54.927Z,0.00
2018-09-01T00:50:54.904Z,0.00
2018-09-01T00:51:54.887Z,0.00
2018-09-01T00:52:54.868Z,0.00
2018-09-01T00:53:54.853Z,0.00
2018-09-01T00:54:54.834Z,0.00
2018-09-01T00:55:54.816Z,0.00
2018-09-01T00:56:54.806Z,0.00
2018-09-01T00:57:54.781Z,0.00
2018-09-01T00:58:54.767Z,0.00
2018-09-01T00:59:54.749Z,0.00
2018-09-01T01:00:54.729Z,0.00
2018-09-01T01:01:54.710Z,0.00
2018-09-01T01:02:54.692Z,0.00
2018-09-01T01:03:54.675Z,0.00
2018-09-01T01:04:54.663Z,0.00
2018-09-01T01:05:54.652Z,0.00
2018-09-01T01:06:54.623Z,0.00
2018-09-01T01:07:54.607Z,0.00
2018-09-01T01:08:54.589Z,0.00
2018-09-01T01:09:54.577Z,0.00
2018-09-01T01:10:54.560Z,0.00
2018-09-01T01:11:54.537Z,0.00
2018-09-01T01:12:54.521Z,0.00
2018-09-01T01:13:54.503Z,0.00
2018-09-01T01:14:54.484Z,0.00
2018-09-01T01:15:54.468Z,0.00
2018-09-01T01:16:54.450Z,0.00
2018-09-01T01:17:54.431Z,0.00
2018-09-01T01:18:54.416Z,0.00
2018-09-01T01:19:54.396Z,0.00
2018-09-01T01:20:54.380Z,0.00
2018-09-01T01:21:54.389Z,0.00
2018-09-01T01:22:54.345Z,0.00
2018-09-01T01:23:54.324Z,0.00
2018-09-01T01:24:54.310Z,0.00
2018-09-01T01:25:54.292Z,0.00
2018-09-01T01:26:54.275Z,0.00
2018-09-01T01:27:54.256Z,0.00
2018-09-01T01:28:54.240Z,0.00
2018-09-01T01:29:54.222Z,0.00
2018-09-01T01:30:54.203Z,0.00
2018-09-01T01:31:54.187Z,0.00
2018-09-01T01:32:54.170Z,0.00
2018-09-01T01:33:54.150Z,0.00
2018-09-01T01:34:54.133Z,0.00
2018-09-01T01:35:54.115Z,0.00
2018-09-01T01:36:54.110Z,0.00
2018-09-01T01:37:54.080Z,0.00
2018-09-01T01:38:54.069Z,0.00
2018-09-01T01:39:54.044Z,0.00
2018-09-01T01:40:54.036Z,0.00
2018-09-01T01:41:54.010Z,0.00
2018-09-01T01:42:53.993Z,0.00
2018-09-01T01:43:53.974Z,0.00
2018-09-01T01:44:53.958Z,0.00
2018-09-01T01:45:53.940Z,0.00
2018-09-01T01:46:53.922Z,0.00
2018-09-01T01:47:53.907Z,0.00
2018-09-01T01:48:53.890Z,0.00
2018-09-01T01:49:53.871Z,0.00
2018-09-01T01:50:53.865Z,0.00
2018-09-01T01:51:53.834Z,0.00
2018-09-01T01:52:53.817Z,0.00
2018-09-01T01:53:53.803Z,0.00
2018-09-01T01:54:53.782Z,0.00
2018-09-01T01:55:53.766Z,0.00
2018-09-01T01:56:53.749Z,0.00
2018-09-01T01:57:53.727Z,0.00
2018-09-01T01:58:53.710Z,0.00
2018-09-01T01:59:53.692Z,0.00
2018-09-01T02:00:53.675Z,0.00
2018-09-01T02:01:53.662Z,0.00
2018-09-01T02:02:53.638Z,0.00
2018-09-01T02:03:53.723Z,0.00
2018-09-01T02:04:53.605Z,0.00
2018-09-01T02:05:53.585Z,0.00
2018-09-01T02:07:36.094Z,0.00
2018-09-01T02:08:36.076Z,0.00
2018-09-01T02:09:36.058Z,0.00
2018-09-01T02:10:36.040Z,0.00
2018-09-01T02:11:36.022Z,0.00
2018-09-01T02:12:36.007Z,0.00
2018-09-01T02:13:35.987Z,0.00
2018-09-01T02:14:35.970Z,0.00
2018-09-01T02:15:35.955Z,0.00
2018-09-01T02:16:35.933Z,0.00
2018-09-01T02:17:35.916Z,0.00
2018-09-01T02:18:35.897Z,0.00
2018-09-01T02:19:35.879Z,0.00
2018-09-01T02:20:35.862Z,0.00
2018-09-01T02:21:35.850Z,0.00
2018-09-01T02:22:35.827Z,0.00
2018-09-01T02:23:35.806Z,0.00
2018-09-01T02:24:35.789Z,0.00
2018-09-01T02:25:35.773Z,0.00
2018-09-01T02:26:35.756Z,0.00
2018-09-01T02:27:35.735Z,0.00
2018-09-01T02:28:35.718Z,0.00
2018-09-01T02:29:35.706Z,0.00
2018-09-01T02:30:35.682Z,0.00
2018-09-01T02:31:35.664Z,0.00
2018-09-01T02:32:35.646Z,0.00
2018-09-01T02:33:35.627Z,0.00
2018-09-01T02:34:35.610Z,0.00
2018-09-01T02:35:35.590Z,0.00
2018-09-01T02:36:35.573Z,0.00
2018-09-01T02:37:35.554Z,0.00
2018-09-01T02:38:35.538Z,0.00
2018-09-01T02:39:35.515Z,0.00
2018-09-01T02:40:35.550Z,0.00
2018-09-01T02:41:35.482Z,0.00
2018-09-01T02:42:35.462Z,0.00
2018-09-01T02:43:35.444Z,0.00
2018-09-01T02:44:35.426Z,0.00
2018-09-01T02:45:35.409Z,0.00
2018-09-01T02:46:35.388Z,0.00
2018-09-01T02:47:35.372Z,0.00
2018-09-01T02:48:35.355Z,0.00
2018-09-01T02:49:35.337Z,0.00
2018-09-01T02:50:35.317Z,0.00
2018-09-01T02:51:35.301Z,0.00
2018-09-01T02:52:35.286Z,0.00
2018-09-01T02:53:35.270Z,0.00
2018-09-01T02:54:35.243Z,0.00
2018-09-01T02:55:35.224Z,0.00
2018-09-01T02:56:35.207Z,0.00
2018-09-01T02:57:35.189Z,0.00
2018-09-01T02:58:35.171Z,0.00
2018-09-01T02:59:35.154Z,0.00
2018-09-01T03:00:35.133Z,0.00
2018-09-01T03:01:35.116Z,0.00
2018-09-01T03:02:35.100Z,0.00
2018-09-01T03:03:35.081Z,0.00
2018-09-01T03:04:35.058Z,0.00
2018-09-01T03:05:35.055Z,0.00
2018-09-01T03:06:35.023Z,0.00
2018-09-01T03:07:35.012Z,0.00
2018-09-01T03:08:34.989Z,0.00
2018-09-01T03:09:34.967Z,0.00
2018-09-01T03:10:34.947Z,0.00
2018-09-01T03:11:34.930Z,0.00
2018-09-01T03:12:34.909Z,0.00
2018-09-01T03:13:34.892Z,0.00
2018-09-01T03:14:34.872Z,0.00
2018-09-01T03:15:34.854Z,0.00
2018-09-01T03:16:34.839Z,0.00
2018-09-01T03:17:34.821Z,0.00
2018-09-01T03:18:34.802Z,0.00
2018-09-01T03:19:34.784Z,0.00
2018-09-01T03:20:34.763Z,0.00
2018-09-01T03:21:34.744Z,0.00
2018-09-01T03:22:34.725Z,0.00
2018-09-01T03:23:34.706Z,0.00
2018-09-01T03:24:34.688Z,0.00
2018-09-01T03:25:34.669Z,0.00
2018-09-01T03:26:34.653Z,0.00
2018-09-01T03:27:34.631Z,0.00
2018-09-01T03:28:34.614Z,0.00
2018-09-01T03:29:34.597Z,0.00
2018-09-01T03:30:34.574Z,0.00
2018-09-01T03:31:34.564Z,0.00
2018-09-01T03:32:34.537Z,0.00
2018-09-01T03:33:34.517Z,0.00
2018-09-01T03:34:34.504Z,0.00
2018-09-01T03:35:34.481Z,0.00
2018-09-01T03:36:34.463Z,0.00
2018-09-01T03:37:34.445Z,0.00
2018-09-01T03:38:34.421Z,0.00
2018-09-01T03:39:34.406Z,0.00
2018-09-01T03:40:34.387Z,0.00
2018-09-01T03:41:34.367Z,0.00
2018-09-01T03:42:34.349Z,0.00
2018-09-01T03:43:34.329Z,0.00
2018-09-01T03:44:34.317Z,0.00
2018-09-01T03:45:34.293Z,0.00
2018-09-01T03:46:34.273Z,0.00
2018-09-01T03:47:34.255Z,0.00
2018-09-01T03:48:34.235Z,0.00
2018-09-01T03:49:34.217Z,0.00
2018-09-01T03:50:34.197Z,0.00
2018-09-01T03:51:34.178Z,0.00
2018-09-01T03:52:34.163Z,0.00
2018-09-01T03:53:34.141Z,0.00
2018-09-01T03:54:34.122Z,0.00
2018-09-01T03:55:34.104Z,0.00
2018-09-01T03:56:34.085Z,0.00
2018-09-01T03:57:34.066Z,0.00
2018-09-01T03:58:34.048Z,0.00
2018-09-01T03:59:34.029Z,0.00
2018-09-01T04:00:34.008Z,0.00
2018-09-01T04:01:33.994Z,0.00
2018-09-01T04:02:33.970Z,0.00
2018-09-01T04:03:33.952Z,0.00
2018-09-01T04:04:33.932Z,0.00
2018-09-01T04:05:33.914Z,0.00
2018-09-01T04:06:33.894Z,0.00
2018-09-01T04:07:33.874Z,0.00
2018-09-01T04:08:33.865Z,0.00
2018-09-01T04:09:33.837Z,0.00
2018-09-01T04:10:33.822Z,0.00
2018-09-01T04:11:33.799Z,0.00
2018-09-01T04:12:33.780Z,0.00
2018-09-01T04:13:33.760Z,0.00
2018-09-01T04:14:33.741Z,5.63
2018-09-01T04:15:33.737Z,5.63
2018-09-01T04:16:33.704Z,5.63
2018-09-01T04:17:33.683Z,5.63
2018-09-01T04:18:33.669Z,5.63
2018-09-01T04:19:33.644Z,5.63
2018-09-01T04:20:33.632Z,5.63
2018-09-01T04:21:33.615Z,5.63
2018-09-01T04:22:33.589Z,5.63
2018-09-01T04:23:33.571Z,5.63
2018-09-01T04:24:36.169Z,11.25
2018-09-01T04:25:33.536Z,11.25
2018-09-01T04:26:33.511Z,11.25
2018-09-01T04:27:33.495Z,11.25
2018-09-01T04:28:33.472Z,11.25
2018-09-01T04:29:33.453Z,11.25
2018-09-01T04:30:33.433Z,16.88
2018-09-01T04:31:33.414Z,16.88
2018-09-01T04:32:33.396Z,16.88
2018-09-01T04:33:33.375Z,16.88
2018-09-01T04:34:33.357Z,16.88
2018-09-01T04:35:33.344Z,16.88
2018-09-01T04:36:33.320Z,22.50
2018-09-01T04:37:33.300Z,22.50
2018-09-01T04:38:33.279Z,22.50
2018-09-01T04:39:33.276Z,22.50
2018-09-01T04:40:33.240Z,22.50
2018-09-01T04:41:33.222Z,22.50
2018-09-01T04:42:33.202Z,22.50
2018-09-01T04:43:33.183Z,28.13
2018-09-01T04:44:33.165Z,28.13
2018-09-01T04:45:33.145Z,28.13
2018-09-01T04:46:33.126Z,28.13
2018-09-01T04:47:33.107Z,28.13
2018-09-01T04:48:33.089Z,33.75
2018-09-01T04:49:33.067Z,33.75
2018-09-01T04:50:33.049Z,33.75
2018-09-01T04:51:33.027Z,33.75
2018-09-01T04:52:33.008Z,33.75
2018-09-01T04:53:32.989Z,33.75
2018-09-01T04:54:32.969Z,39.38
2018-09-01T04:55:32.951Z,39.38
2018-09-01T04:56:32.931Z,39.38
2018-09-01T04:57:32.919Z,39.38
2018-09-01T04:58:32.893Z,45.00
2018-09-01T04:59:32.881Z,45.00
2018-09-01T05:00:32.853Z,45.00
2018-09-01T05:01:32.836Z,45.00
2018-09-01T05:02:32.819Z,50.63
2018-09-01T05:03:32.797Z,50.63
2018-09-01T05:04:32.778Z,50.63
2018-09-01T05:05:32.759Z,56.25
2018-09-01T05:06:32.739Z,56.25
2018-09-01T05:07:32.723Z,61.88
2018-09-01T05:08:32.701Z,61.88
2018-09-01T05:09:32.681Z,67.50
2018-09-01T05:10:32.663Z,67.50
2018-09-01T05:11:32.642Z,67.50
2018-09-01T05:12:32.624Z,67.50
2018-09-01T05:13:32.605Z,67.50
2018-09-01T05:14:32.586Z,67.50
2018-09-01T05:15:32.567Z,67.50
2018-09-01T05:16:32.546Z,67.50
2018-09-01T05:17:32.525Z,67.50
2018-09-01T05:18:32.510Z,73.13
2018-09-01T05:19:32.489Z,73.13
2018-09-01T05:20:32.467Z,73.13
2018-09-01T05:21:32.447Z,78.75
2018-09-01T05:22:32.429Z,84.38
2018-09-01T05:23:32.410Z,84.38
2018-09-01T05:24:32.392Z,90.00
2018-09-01T05:25:32.370Z,90.00
2018-09-01T05:26:32.350Z,90.00
2018-09-01T05:27:32.333Z,90.00
2018-09-01T05:28:32.358Z,90.00
2018-09-01T05:29:32.293Z,90.00
2018-09-01T05:30:32.279Z,84.38
2018-09-01T05:31:32.254Z,84.38
2018-09-01T05:32:32.234Z,90.00
2018-09-01T05:33:32.220Z,90.00
2018-09-01T05:34:32.199Z,90.00
2018-09-01T05:35:32.177Z,90.00
2018-09-01T05:36:32.227Z,90.00
2018-09-01T05:37:32.145Z,95.63
2018-09-01T05:38:32.120Z,95.63
2018-09-01T05:39:32.102Z,101.25
2018-09-01T05:40:32.081Z,106.88
2018-09-01T05:41:32.064Z,106.88
2018-09-01T05:42:32.046Z,112.50
2018-09-01T05:43:32.054Z,118.13
2018-09-01T05:44:32.005Z,118.13
2018-09-01T05:45:31.988Z,118.13
2018-09-01T05:46:31.967Z,118.13
2018-09-01T05:47:31.951Z,118.13
2018-09-01T05:48:31.928Z,118.13
2018-09-01T05:49:31.909Z,118.13
2018-09-01T05:50:31.888Z,118.13
2018-09-01T05:51:31.871Z,118.13
2018-09-01T05:52:31.852Z,118.13
2018-09-01T05:53:31.837Z,118.13
2018-09-01T05:54:31.816Z,123.75
2018-09-01T05:55:31.794Z,123.75
2018-09-01T05:56:31.781Z,123.75
2018-09-01T05:57:31.760Z,129.38
2018-09-01T05:58:31.736Z,129.38
2018-09-01T05:59:31.719Z,135.00
2018-09-01T06:00:31.736Z,140.63
2018-09-01T06:01:31.683Z,146.25
2018-09-01T06:02:31.662Z,146.25
2018-09-01T06:03:31.643Z,146.25
2018-09-01T06:04:31.626Z,146.25
2018-09-01T06:05:31.606Z,146.25
2018-09-01T06:06:31.588Z,157.50
2018-09-01T06:07:31.582Z,163.13
2018-09-01T06:08:31.548Z,168.75
2018-09-01T06:09:31.533Z,174.38
2018-09-01T06:10:31.516Z,180.00
2018-09-01T06:11:31.492Z,185.63
2018-09-01T06:12:31.475Z,185.63
2018-09-01T06:13:31.458Z,191.25
2018-09-01T06:14:31.438Z,191.25
2018-09-01T06:15:31.422Z,191.25
2018-09-01T06:16:31.400Z,185.63
2018-09-01T06:17:31.476Z,185.63
2018-09-01T06:18:31.368Z,191.25
2018-09-01T06:19:31.345Z,196.88
2018-09-01T06:20:31.326Z,196.88
2018-09-01T06:21:31.308Z,202.50
2018-09-01T06:22:31.902Z,213.75
2018-09-01T06:23:31.271Z,219.38
2018-09-01T06:24:31.252Z,230.63
2018-09-01T06:25:31.235Z,236.25
2018-09-01T06:26:31.216Z,241.88
2018-09-01T06:27:31.201Z,241.88
2018-09-01T06:28:31.181Z,247.50
2018-09-01T06:29:31.166Z,241.88
2018-09-01T06:30:31.144Z,241.88
2018-09-01T06:31:31.181Z,247.50
2018-09-01T06:32:31.109Z,236.25
2018-09-01T06:33:31.091Z,236.25
2018-09-01T06:34:31.073Z,236.25
2018-09-01T06:35:31.056Z,236.25
2018-09-01T06:36:31.037Z,241.88
2018-09-01T06:37:31.042Z,247.50
2018-09-01T06:38:31.005Z,247.50
2018-09-01T06:39:30.985Z,247.50
2018-09-01T06:40:30.969Z,241.88
2018-09-01T06:41:30.950Z,241.88
2018-09-01T06:42:30.932Z,241.88
2018-09-01T06:43:30.917Z,247.50
2018-09-01T06:44:30.899Z,253.13
2018-09-01T06:45:30.881Z,258.75
2018-09-01T06:46:30.862Z,258.75
2018-09-01T06:47:30.850Z,264.38
2018-09-01T06:48:30.830Z,270.00
2018-09-01T06:49:30.813Z,275.63
2018-09-01T06:50:30.795Z,275.63
2018-09-01T06:51:30.809Z,281.25
2018-09-01T06:52:30.763Z,292.50
2018-09-01T06:53:30.746Z,292.50
2018-09-01T06:54:30.730Z,292.50
2018-09-01T06:55:30.710Z,298.13
2018-09-01T06:56:30.695Z,303.75
2018-09-01T06:57:30.682Z,315.00
2018-09-01T06:58:30.669Z,315.00
2018-09-01T06:59:30.644Z,331.88
2018-09-01T07:00:30.634Z,343.13
2018-09-01T07:01:30.612Z,360.00
2018-09-01T07:02:30.598Z,388.13
2018-09-01T07:03:30.582Z,410.63
2018-09-01T07:04:30.573Z,455.63
2018-09-01T07:05:30.548Z,489.38
2018-09-01T07:06:30.532Z,1147.50
2018-09-01T07:07:30.517Z,1963.13
2018-09-01T07:08:30.501Z,2047.50
2018-09-01T07:09:30.485Z,2036.25
2018-09-01T07:10:30.480Z,2053.13
2018-09-01T07:11:30.458Z,2064.38
2018-09-01T07:12:30.439Z,2160.00
2018-09-01T07:13:30.426Z,2070.00
2018-09-01T07:14:30.413Z,2030.63
2018-09-01T07:15:30.397Z,2053.13
2018-09-01T07:16:30.385Z,2002.50
2018-09-01T07:17:30.375Z,2030.63
2018-09-01T07:18:30.354Z,2030.63
2018-09-01T07:19:30.340Z,2154.38
2018-09-01T07:20:30.327Z,2171.25
2018-09-01T07:21:30.314Z,2109.38
2018-09-01T07:22:30.302Z,2058.75
2018-09-01T07:23:30.289Z,2098.13
2018-09-01T07:24:30.276Z,2154.38
2018-09-01T07:25:30.264Z,2143.13
2018-09-01T07:26:30.254Z,2115.00
2018-09-01T07:27:30.241Z,2041.88
2018-09-01T07:28:30.228Z,1974.38
2018-09-01T07:29:30.219Z,2115.00
2018-09-01T07:30:30.424Z,1417.50
2018-09-01T07:31:30.633Z,1006.88
2018-09-01T07:32:30.193Z,939.38
2018-09-01T07:33:30.177Z,1530.00
2018-09-01T07:34:30.170Z,1451.25
2018-09-01T07:35:30.152Z,725.63
2018-09-01T07:36:30.142Z,680.63
2018-09-01T07:37:30.137Z,675.00
2018-09-01T07:38:30.120Z,686.25
2018-09-01T07:39:30.109Z,680.63
2018-09-01T07:40:30.100Z,658.13
2018-09-01T07:41:30.098Z,641.25
2018-09-01T07:42:30.077Z,624.38
2018-09-01T07:43:30.067Z,585.00
2018-09-01T07:44:30.059Z,556.88
2018-09-01T07:45:30.050Z,528.75
2018-09-01T07:46:30.037Z,517.50
2018-09-01T07:47:30.029Z,506.25
2018-09-01T07:48:30.019Z,500.63
2018-09-01T07:49:30.011Z,495.00
2018-09-01T07:50:29.998Z,495.00
2018-09-01T07:51:29.991Z,500.63
2018-09-01T07:52:29.976Z,511.88
2018-09-01T07:53:29.985Z,534.38
2018-09-01T07:54:30.013Z,815.63
2018-09-01T07:55:29.953Z,2019.38
2018-09-01T07:56:29.940Z,2536.88
2018-09-01T07:57:29.933Z,2491.88
2018-09-01T07:58:29.926Z,2536.88
2018-09-01T07:59:29.914Z,2666.25
2018-09-01T08:00:29.902Z,2857.50
2018-09-01T08:01:29.893Z,2919.38
2018-09-01T08:02:29.892Z,2908.13
2018-09-01T08:03:29.876Z,2958.75
2018-09-01T08:04:29.867Z,2846.25
2018-09-01T08:05:29.864Z,3251.25
2018-09-01T08:06:29.853Z,2784.38
2018-09-01T08:07:29.900Z,579.38
2018-09-01T08:08:29.836Z,787.50
2018-09-01T08:09:29.836Z,770.63
2018-09-01T08:10:29.822Z,894.38
2018-09-01T08:11:29.817Z,894.38
2018-09-01T08:12:29.805Z,905.63
2018-09-01T08:13:29.799Z,1125.00
2018-09-01T08:14:29.827Z,2503.13
2018-09-01T08:15:29.786Z,3318.75
2018-09-01T08:16:29.777Z,3268.13
2018-09-01T08:17:29.773Z,3228.75
2018-09-01T08:18:29.762Z,3268.13
2018-09-01T08:19:29.765Z,3391.88
2018-09-01T08:20:29.751Z,3493.13
2018-09-01T08:21:29.793Z,3521.25
2018-09-01T08:22:29.735Z,3476.25
2018-09-01T08:23:29.729Z,3420.00
2018-09-01T08:24:29.726Z,3397.50
2018-09-01T08:25:29.724Z,3448.13
2018-09-01T08:26:29.717Z,3498.75
2018-09-01T08:27:29.708Z,3549.38
2018-09-01T08:28:29.699Z,3470.63
2018-09-01T08:29:29.699Z,3352.50
2018-09-01T08:30:29.686Z,3318.75
2018-09-01T08:31:29.683Z,3346.88
2018-09-01T08:32:29.678Z,3386.25
2018-09-01T08:33:29.729Z,3487.50
2018-09-01T08:34:29.667Z,3549.38
2018-09-01T08:35:29.656Z,3757.50
2018-09-01T08:36:29.657Z,3965.63
2018-09-01T08:37:29.649Z,3903.75
2018-09-01T08:38:29.647Z,3555.00
2018-09-01T08:39:29.645Z,3234.38
2018-09-01T08:40:29.636Z,3268.13
2018-09-01T08:41:29.629Z,3296.25
2018-09-01T08:42:29.623Z,3757.50
2018-09-01T08:43:29.620Z,483.75
2018-09-01T08:44:29.615Z,461.25
2018-09-01T08:45:29.663Z,444.38
2018-09-01T08:46:29.604Z,489.38
2018-09-01T08:47:29.604Z,3706.88
2018-09-01T08:48:29.603Z,3841.88
2018-09-01T08:49:29.596Z,3768.75
2018-09-01T08:50:29.592Z,3971.25
2018-09-01T08:51:29.580Z,3948.75
2018-09-01T08:52:29.579Z,3538.13
2018-09-01T08:53:29.576Z,3015.00
2018-09-01T08:54:29.566Z,2238.75
2018-09-01T08:55:29.562Z,1490.63
2018-09-01T08:56:29.578Z,1366.88
2018-09-01T08:57:29.553Z,1440.00
2018-09-01T08:58:29.546Z,888.75
2018-09-01T08:59:29.543Z,1383.75
2018-09-01T09:00:29.543Z,686.25
2018-09-01T09:01:29.538Z,663.75
2018-09-01T09:02:29.538Z,618.75
2018-09-01T09:03:29.523Z,551.25
2018-09-01T09:04:29.519Z,489.38
2018-09-01T09:05:29.572Z,534.38
2018-09-01T09:06:29.507Z,860.63
2018-09-01T09:07:29.503Z,1136.25
2018-09-01T09:08:29.501Z,1113.75
2018-09-01T09:09:29.494Z,973.13
2018-09-01T09:10:29.488Z,804.38
2018-09-01T09:11:29.526Z,742.50
2018-09-01T09:12:29.476Z,720.00
2018-09-01T09:13:29.477Z,1389.38
2018-09-01T09:14:29.468Z,1383.75
2018-09-01T09:15:29.461Z,1355.63
2018-09-01T09:16:29.456Z,1400.63
2018-09-01T09:17:29.451Z,1338.75
2018-09-01T09:18:29.468Z,1445.63
2018-09-01T09:19:29.450Z,1850.63
2018-09-01T09:20:29.434Z,1681.88
2018-09-01T09:21:29.427Z,703.13
2018-09-01T09:22:29.423Z,2964.38
2018-09-01T09:23:29.417Z,680.63
2018-09-01T09:24:29.412Z,871.88
2018-09-01T09:25:29.406Z,663.75
2018-09-01T09:26:29.400Z,590.63
2018-09-01T09:27:29.396Z,562.50
2018-09-01T09:28:29.391Z,556.88
2018-09-01T09:29:29.384Z,562.50
2018-09-01T09:30:29.377Z,585.00
2018-09-01T09:31:29.369Z,568.13
2018-09-01T09:32:29.364Z,596.25
2018-09-01T09:33:29.360Z,1518.75
2018-09-01T09:34:29.420Z,3048.75
2018-09-01T09:35:29.347Z,3813.75
2018-09-01T09:36:29.344Z,1974.38
2018-09-01T09:37:29.336Z,562.50
2018-09-01T09:38:29.331Z,466.88
2018-09-01T09:39:29.325Z,483.75
2018-09-01T09:40:29.320Z,495.00
2018-09-01T09:41:29.313Z,551.25
2018-09-01T09:42:29.309Z,590.63
2018-09-01T09:43:29.303Z,630.00
2018-09-01T09:44:29.296Z,5096.25
2018-09-01T09:45:29.288Z,4921.88
2018-09-01T09:46:29.293Z,4854.38
2018-09-01T09:47:29.277Z,4899.38
2018-09-01T09:48:29.279Z,4966.88
2018-09-01T09:49:29.268Z,5056.88
2018-09-01T09:50:29.262Z,5073.75
2018-09-01T09:51:29.255Z,5034.38
2018-09-01T09:52:29.251Z,5023.13
2018-09-01T09:53:29.247Z,4995.00
2018-09-01T09:54:29.240Z,4758.75
2018-09-01T09:55:29.236Z,3538.13
2018-09-01T09:56:29.231Z,3836.25
2018-09-01T09:57:29.228Z,4989.38
2018-09-01T09:58:29.221Z,4888.13
2018-09-01T09:59:29.221Z,4764.38
2018-09-01T10:00:29.218Z,4792.50
2018-09-01T10:01:29.214Z,3903.75
2018-09-01T10:02:29.271Z,3701.25
2018-09-01T10:03:29.210Z,472.50
2018-09-01T10:04:32.226Z,348.75
2018-09-01T10:05:29.209Z,326.25
2018-09-01T10:06:29.190Z,315.00
2018-09-01T10:07:29.187Z,326.25
2018-09-01T10:08:29.189Z,315.00
2018-09-01T10:09:29.181Z,298.13
2018-09-01T10:10:29.175Z,303.75
2018-09-01T10:11:29.175Z,315.00
2018-09-01T10:12:29.169Z,320.63
2018-09-01T10:13:29.161Z,320.63
2018-09-01T10:14:29.161Z,331.88
2018-09-01T10:15:29.163Z,348.75
2018-09-01T10:16:29.150Z,427.50
2018-09-01T10:17:29.147Z,556.88
2018-09-01T10:18:29.141Z,1091.25
2018-09-01T10:19:29.139Z,3375.00
2018-09-01T10:20:29.147Z,5096.25
2018-09-01T10:21:29.127Z,5051.25
2018-09-01T10:22:29.121Z,4978.13
2018-09-01T10:23:29.120Z,4888.13
2018-09-01T10:24:29.114Z,4826.25
2018-09-01T10:25:29.120Z,4933.13
2018-09-01T10:26:29.106Z,4803.75
2018-09-01T10:27:29.101Z,5079.38
2018-09-01T10:28:29.100Z,5017.50
2018-09-01T10:29:29.093Z,1569.38
2018-09-01T10:30:29.097Z,669.38
2018-09-01T10:31:29.112Z,4556.25
2018-09-01T10:32:29.083Z,4770.00
2018-09-01T10:33:29.092Z,883.13
2018-09-01T10:34:29.074Z,658.13
2018-09-01T10:35:29.078Z,4888.13
2018-09-01T10:36:29.067Z,5422.50
2018-09-01T10:37:29.065Z,5298.75
2018-09-01T10:38:29.162Z,5203.13
2018-09-01T10:39:29.056Z,5141.25
2018-09-01T10:40:29.059Z,5130.00
2018-09-01T10:41:29.054Z,5113.13
2018-09-01T10:42:29.048Z,4230.00
2018-09-01T10:43:29.047Z,5203.13
2018-09-01T10:44:29.046Z,658.13
2018-09-01T10:45:29.042Z,478.13
2018-09-01T10:46:29.042Z,455.63
2018-09-01T10:47:29.037Z,421.88
2018-09-01T10:48:29.035Z,405.00
2018-09-01T10:49:29.031Z,405.00
2018-09-01T10:50:29.035Z,438.75
2018-09-01T10:51:29.034Z,680.63
2018-09-01T10:52:29.023Z,1456.88
2018-09-01T10:53:29.021Z,585.00
2018-09-01T10:54:29.017Z,466.88
2018-09-01T10:55:29.018Z,382.50
2018-09-01T10:56:29.015Z,354.38
2018-09-01T10:57:29.008Z,337.50
2018-09-01T10:58:29.012Z,343.13
2018-09-01T10:59:29.287Z,331.88
2018-09-01T11:00:29.002Z,365.63
2018-09-01T11:01:29.002Z,376.88
2018-09-01T11:02:28.994Z,416.25
2018-09-01T11:03:28.988Z,371.25
2018-09-01T11:04:28.985Z,405.00
2018-09-01T11:05:29.032Z,742.50
2018-09-01T11:06:28.982Z,995.63
2018-09-01T11:07:28.975Z,956.25
2018-09-01T11:08:28.971Z,973.13
2018-09-01T11:09:28.966Z,956.25
2018-09-01T11:10:28.961Z,995.63
2018-09-01T11:11:28.956Z,1096.88
2018-09-01T11:12:28.953Z,1243.13
2018-09-01T11:13:28.952Z,905.63
2018-09-01T11:14:28.941Z,1496.25
2018-09-01T11:15:28.939Z,3127.50
2018-09-01T11:16:28.936Z,2115.00
2018-09-01T11:17:28.950Z,3481.88
2018-09-01T11:18:28.924Z,1631.25
2018-09-01T11:19:28.924Z,4421.25
2018-09-01T11:20:28.918Z,3886.88
2018-09-01T11:21:28.912Z,2655.00
2018-09-01T11:22:28.911Z,2694.38
2018-09-01T11:23:28.905Z,5321.25
2018-09-01T11:24:28.913Z,5332.50
2018-09-01T11:25:28.897Z,5276.25
2018-09-01T11:26:28.891Z,5163.75
2018-09-01T11:27:28.892Z,1546.88
2018-09-01T11:28:28.884Z,4961.25
2018-09-01T11:29:28.880Z,5304.38
2018-09-01T11:30:28.878Z,5315.63
2018-09-01T11:31:28.875Z,5377.50
2018-09-01T11:32:28.872Z,5388.75
2018-09-01T11:33:28.869Z,5394.38
2018-09-01T11:34:28.866Z,5433.75
2018-09-01T11:35:28.863Z,5467.50
2018-09-01T11:36:28.866Z,5366.25
2018-09-01T11:37:28.859Z,5040.00
2018-09-01T11:38:28.861Z,4809.38
2018-09-01T11:39:28.853Z,4950.00
2018-09-01T11:40:28.856Z,5287.50
2018-09-01T11:41:28.850Z,5186.25
2018-09-01T11:42:28.937Z,5416.88
2018-09-01T11:43:28.845Z,5473.13
2018-09-01T11:44:28.846Z,5506.88
2018-09-01T11:45:28.843Z,5349.38
2018-09-01T11:46:28.841Z,5079.38
2018-09-01T11:47:28.849Z,4899.38
2018-09-01T11:48:28.842Z,4860.00
2018-09-01T11:49:28.842Z,4876.88
2018-09-01T11:50:28.838Z,5445.00
2018-09-01T11:51:28.837Z,5366.25
2018-09-01T11:52:28.838Z,2857.50
2018-09-01T11:53:28.840Z,4770.00
2018-09-01T11:54:28.838Z,1057.50
2018-09-01T11:55:28.837Z,883.13
2018-09-01T11:56:28.891Z,748.13
2018-09-01T11:57:28.841Z,613.13
2018-09-01T11:58:28.915Z,517.50
2018-09-01T11:59:28.839Z,455.63
2018-09-01T12:00:28.838Z,388.13
2018-09-01T12:01:28.837Z,343.13
2018-09-01T12:02:28.834Z,326.25
2018-09-01T12:03:28.847Z,315.00
2018-09-01T12:04:28.829Z,320.63
2018-09-01T12:05:28.829Z,337.50
2018-09-01T12:06:28.833Z,360.00
2018-09-01T12:07:28.835Z,376.88
2018-09-01T12:08:28.825Z,393.75
2018-09-01T12:09:28.950Z,416.25
2018-09-01T12:10:28.820Z,438.75
2018-09-01T12:11:28.875Z,455.63
2018-09-01T12:12:28.820Z,472.50
2018-09-01T12:13:28.816Z,483.75
2018-09-01T12:14:28.816Z,489.38
2018-09-01T12:15:28.810Z,489.38
2018-09-01T12:16:28.813Z,500.63
2018-09-01T12:17:28.812Z,500.63
2018-09-01T12:18:28.804Z,500.63
2018-09-01T12:19:28.808Z,523.13
2018-09-01T12:20:28.805Z,545.63
2018-09-01T12:21:28.795Z,573.75
2018-09-01T12:22:28.797Z,601.88
2018-09-01T12:23:28.789Z,618.75
2018-09-01T12:24:28.791Z,635.63
2018-09-01T12:25:28.782Z,641.25
2018-09-01T12:26:28.788Z,641.25
2018-09-01T12:27:28.778Z,630.00
2018-09-01T12:28:28.775Z,624.38
2018-09-01T12:29:28.769Z,613.13
2018-09-01T12:30:28.768Z,596.25
2018-09-01T12:31:28.760Z,579.38
2018-09-01T12:32:28.761Z,568.13
2018-09-01T12:33:28.754Z,562.50
2018-09-01T12:34:28.747Z,556.88
2018-09-01T12:35:28.852Z,556.88
2018-09-01T12:36:28.742Z,562.50
2018-09-01T12:37:28.738Z,573.75
2018-09-01T12:38:28.733Z,585.00
2018-09-01T12:39:28.728Z,579.38
2018-09-01T12:40:28.727Z,573.75
2018-09-01T12:41:28.720Z,562.50
2018-09-01T12:42:28.715Z,556.88